Aérodrome :
LOGIN :

S'inscrire | Disclaimer

   EN    FR    IT 

 










Légende :    VFR   VFR Marginal   IFR   IFR Intensif   IFR Très Intensif
Visi : 
Plafond : 
>= 8 km
>= 3000ft
5 à 8 km
1000 à 3000 ft
1500m à 5 km
500 à 1000 ft
800 à 1500m
200 à 500 ft
< 800m
< 200 ft
Symboles :   Orages  Brouillard  Fortes neiges  Fortes précipitations  Vent > 20 kt
SIGMETs :   Divers  Orages  Givrage  Turbulence  Onde Orograph.  Cendres Volcan.







- Altitude de l'aérodrome : 132 ft


EGXE - RAF Leeming

DERNIER METAR :
  • 190850Z 24009KT 9999 FEW022 08/04 Q1013 BLU TEMPO SCT020 WHT

METARs EXPIRÉS :
  • 190750Z 24007KT 9999 FEW022 06/04 Q1013 BLU NOSIG
  • 190650Z 23005KT 9999 FEW022 06/03 Q1012 BLU
  • 190550Z AUTO 24004KT 9999 FEW045/// 06/03 Q1011

TAF TAF EGXE
Valide du 19 à 09h jusqu'au 19 à 18h UTC


190724Z 1909/1918 22010KT 9999 FEW020 SCT045
PROB30
TEMPO 1909/1918 SCT020
Pas de NOTAMs connus pour ce terrain.



MET'MAP, la Météo Aéronautique d'un coup d'oeil ! - Copyright ORBIFLY Décembre 2007 - Disclaimer

ORBIFLY MET'MAP TEAM :

Programmation & Développement : Alexandra Zaïnal
Conception & Développement : Baudouin d'Aumeries
Co-Programmation & Développement : Marc-Olivier Méhu
Soutien technique & logistique : Manuel Goepfert

Contact : metmap@orbifly.com




SOURCES & CREDITS :

   NOAA